Time;durP1;ratioP1;P1;durP2;ratioP2;P2;SDS_P1;SDS_P2;PMS_P1;PMS_P2;Temp;Humidity;BMP_temperature;BMP_pressure;BME280_temperature;BME280_humidity;BME280_pressure;Samples;Min_cycle;Max_cycle;Signal;HPM_P1;HPM_P2
2023/09/07 00:01:55;;;;;;;5.50;3.22;;;22.70;99.90;;;;;;4996629;28;20040;-77
2023/09/07 00:04:22;;;;;;;3.47;3.15;;;22.70;99.90;;;;;;4996637;28;20069;-77
2023/09/07 00:06:49;;;;;;;4.47;2.97;;;22.80;99.90;;;;;;4980028;28;20048;-77
2023/09/07 00:09:16;;;;;;;4.47;3.00;;;22.80;99.90;;;;;;4996569;28;20037;-77
2023/09/07 00:11:41;;;;;;;3.33;2.80;;;22.70;99.90;;;;;;4995293;28;20046;-77
2023/09/07 00:14:07;;;;;;;5.22;3.53;;;22.60;99.90;;;;;;4996391;28;20044;-77
2023/09/07 00:16:35;;;;;;;4.05;3.03;;;22.70;99.90;;;;;;4996310;28;20034;-77
2023/09/07 00:19:02;;;;;;;7.00;3.70;;;22.50;99.90;;;;;;4996684;28;20048;-77
2023/09/07 00:21:27;;;;;;;4.60;3.28;;;22.60;99.90;;;;;;4980105;28;20038;-77
2023/09/07 00:23:54;;;;;;;3.83;3.10;;;22.60;99.90;;;;;;4996421;28;20440;-77
2023/09/07 00:26:20;;;;;;;8.00;4.03;;;22.40;99.90;;;;;;4996220;28;20046;-77
2023/09/07 00:28:46;;;;;;;9.00;3.63;;;22.50;99.90;;;;;;4980300;28;20489;-77
2023/09/07 00:31:11;;;;;;;5.72;2.97;;;22.70;99.90;;;;;;4979861;28;20037;-77
2023/09/07 00:33:37;;;;;;;4.18;3.13;;;22.20;99.90;;;;;;4996226;28;20048;-77
2023/09/07 00:36:03;;;;;;;5.57;3.30;;;22.60;99.90;;;;;;4996038;28;20046;-76
2023/09/07 00:38:29;;;;;;;5.80;3.30;;;22.50;99.90;;;;;;4996088;28;20033;-77
2023/09/07 00:40:55;;;;;;;5.35;3.13;;;22.40;99.90;;;;;;4996008;28;20187;-77
2023/09/07 00:43:20;;;;;;;7.18;3.90;;;22.40;99.90;;;;;;4995981;28;20541;-77
2023/09/07 00:45:46;;;;;;;6.38;3.45;;;22.50;99.90;;;;;;4995707;28;20045;-77
2023/09/07 00:48:14;;;;;;;5.68;3.25;;;22.70;99.90;;;;;;4996165;28;20038;-77
2023/09/07 00:50:40;;;;;;;7.13;3.72;;;22.40;99.90;;;;;;4995803;28;20034;-77
2023/09/07 00:53:06;;;;;;;4.00;2.88;;;23.30;99.90;;;;;;4979691;28;20038;-77
2023/09/07 00:55:34;;;;;;;6.80;3.92;;;22.20;99.90;;;;;;4995655;28;20489;-77
2023/09/07 00:58:01;;;;;;;6.10;2.65;;;22.30;99.90;;;;;;4995427;28;20072;-77
2023/09/07 01:00:27;;;;;;;5.30;3.22;;;22.20;99.90;;;;;;4979979;28;20042;-76
2023/09/07 01:02:52;;;;;;;10.23;4.50;;;22.10;99.90;;;;;;4995699;28;20057;-77
2023/09/07 01:05:21;;;;;;;5.72;3.10;;;22.20;99.90;;;;;;4995935;28;20030;-77
2023/09/07 01:07:54;;;;;;;5.05;3.10;;;22.20;99.90;;;;;;4995198;28;20133;-77
2023/09/07 01:10:21;;;;;;;4.95;3.50;;;22.20;99.90;;;;;;4979490;28;20084;-77
2023/09/07 01:12:47;;;;;;;5.43;3.10;;;22.20;99.90;;;;;;4995366;28;20078;-77
2023/09/07 01:15:12;;;;;;;3.65;2.75;;;22.10;99.90;;;;;;4979581;28;20477;-76
2023/09/07 01:17:39;;;;;;;6.03;3.55;;;21.90;99.90;;;;;;4995000;28;20121;-76
2023/09/07 01:20:09;;;;;;;3.75;2.70;;;22.00;99.90;;;;;;4995209;28;20069;-76
2023/09/07 01:22:35;;;;;;;6.15;3.30;;;22.00;99.90;;;;;;4994881;28;20041;-76
2023/09/07 01:25:02;;;;;;;6.38;3.13;;;22.00;99.90;;;;;;4979174;28;20042;-77
2023/09/07 01:27:28;;;;;;;4.90;3.53;;;21.90;99.90;;;;;;4994874;28;20042;-77
2023/09/07 01:29:54;;;;;;;5.97;3.40;;;21.90;99.90;;;;;;4995023;28;20042;-76
2023/09/07 01:32:20;;;;;;;4.15;3.30;;;21.90;99.90;;;;;;4995155;28;20050;-77
2023/09/07 01:34:45;;;;;;;8.95;3.55;;;21.90;99.90;;;;;;4995485;28;20057;-77
2023/09/07 01:37:11;;;;;;;7.38;3.63;;;21.90;99.90;;;;;;4994654;28;20053;-77
2023/09/07 01:39:36;;;;;;;4.55;3.05;;;21.70;99.90;;;;;;4995029;28;20034;-76
2023/09/07 01:42:02;;;;;;;7.90;3.58;;;21.80;99.90;;;;;;4994806;28;20045;-77
2023/09/07 01:44:29;;;;;;;6.28;3.92;;;21.80;99.90;;;;;;4979035;28;20125;-77
2023/09/07 01:46:55;;;;;;;8.57;3.63;;;21.70;99.90;;;;;;4978526;28;20125;-76
2023/09/07 01:49:21;;;;;;;5.53;3.50;;;21.50;99.90;;;;;;4978602;28;20577;-77
2023/09/07 01:51:46;;;;;;;4.13;3.08;;;21.60;99.90;;;;;;4994781;28;20037;-77
2023/09/07 01:54:12;;;;;;;6.03;3.58;;;21.70;99.90;;;;;;4994797;28;20038;-77
2023/09/07 01:56:41;;;;;;;5.15;3.92;;;21.60;99.90;;;;;;4978142;28;20052;-77
2023/09/07 01:59:06;;;;;;;7.07;4.28;;;21.50;99.90;;;;;;4994665;28;20046;-77
2023/09/07 02:01:36;;;;;;;5.85;3.85;;;22.10;99.90;;;;;;4994574;28;20436;-77
2023/09/07 02:04:02;;;;;;;3.95;3.30;;;21.70;99.90;;;;;;4994644;28;20088;-77
2023/09/07 02:06:28;;;;;;;4.18;3.40;;;21.40;99.90;;;;;;4978069;28;20046;-77
2023/09/07 02:08:54;;;;;;;5.97;4.18;;;21.20;99.90;;;;;;4994599;28;20402;-76
2023/09/07 02:11:19;;;;;;;7.82;4.20;;;21.00;99.90;;;;;;4994372;28;20509;-76
2023/09/07 02:13:47;;;;;;;4.93;4.13;;;21.30;99.90;;;;;;4994572;28;20042;-76
2023/09/07 02:16:13;;;;;;;7.20;4.55;;;21.30;99.90;;;;;;4994146;28;20042;-76
2023/09/07 02:18:43;;;;;;;6.95;4.40;;;21.30;99.90;;;;;;4994400;28;20045;-76
2023/09/07 02:21:09;;;;;;;5.43;4.22;;;21.30;99.90;;;;;;4978166;28;20045;-76
2023/09/07 02:23:36;;;;;;;7.32;4.65;;;21.30;99.90;;;;;;4978351;28;20033;-76
2023/09/07 02:26:02;;;;;;;5.60;4.90;;;21.30;99.90;;;;;;4977945;28;20038;-76
2023/09/07 02:28:28;;;;;;;6.50;4.85;;;21.20;99.90;;;;;;4978162;28;20042;-76
2023/09/07 02:30:54;;;;;;;6.68;5.18;;;21.40;99.90;;;;;;4994421;28;20099;-76
2023/09/07 02:33:20;;;;;;;5.85;4.50;;;21.30;99.90;;;;;;4994130;28;20037;-76
2023/09/07 02:35:48;;;;;;;5.80;4.20;;;21.10;99.90;;;;;;4997153;28;20048;-76
2023/09/07 02:38:13;;;;;;;6.30;4.35;;;21.70;99.90;;;;;;4998535;28;20088;-76
2023/09/07 02:40:43;;;;;;;5.60;4.40;;;21.90;99.90;;;;;;4998150;28;20405;-76
2023/09/07 02:43:09;;;;;;;6.28;4.30;;;21.20;99.90;;;;;;4998187;28;20036;-76
2023/09/07 02:45:35;;;;;;;5.78;4.90;;;21.00;99.90;;;;;;4981894;28;20558;-76
2023/09/07 02:48:01;;;;;;;5.28;4.63;;;21.10;99.90;;;;;;4997712;28;20038;-76
2023/09/07 02:50:29;;;;;;;6.05;4.85;;;21.10;99.90;;;;;;4981857;28;20128;-76
2023/09/07 02:52:55;;;;;;;7.50;4.43;;;21.20;99.90;;;;;;4998283;28;20046;-76
2023/09/07 02:55:20;;;;;;;7.22;4.43;;;21.90;99.90;;;;;;4998006;28;20133;-76
2023/09/07 02:57:46;;;;;;;7.28;4.45;;;20.80;99.90;;;;;;4997688;28;20511;-76
2023/09/07 03:00:12;;;;;;;5.13;4.15;;;20.80;99.90;;;;;;4981724;28;20103;-76
2023/09/07 03:02:38;;;;;;;7.30;4.53;;;20.90;99.90;;;;;;4997785;28;20034;-76
2023/09/07 03:05:03;;;;;;;5.47;4.93;;;21.20;99.90;;;;;;4998129;28;20069;-76
2023/09/07 03:07:33;;;;;;;5.40;4.38;;;20.90;99.90;;;;;;4997463;28;20172;-76
2023/09/07 03:09:59;;;;;;;8.93;4.82;;;20.80;99.90;;;;;;4997760;28;20099;-76
2023/09/07 03:12:25;;;;;;;5.88;4.60;;;21.00;99.90;;;;;;4997674;28;20124;-76
2023/09/07 03:14:51;;;;;;;7.93;4.65;;;20.90;99.90;;;;;;4997608;28;20042;-76
2023/09/07 03:17:17;;;;;;;8.35;4.40;;;20.70;99.90;;;;;;4997172;28;20046;-76
2023/09/07 03:19:43;;;;;;;6.50;4.63;;;20.70;99.90;;;;;;4997661;28;20063;-76
2023/09/07 03:22:08;;;;;;;6.15;5.55;;;20.70;99.90;;;;;;4997709;28;20042;-76
2023/09/07 03:24:34;;;;;;;5.47;4.93;;;20.60;99.90;;;;;;4997494;28;20034;-76
2023/09/07 03:27:00;;;;;;;9.48;4.97;;;20.40;99.90;;;;;;4997124;28;20049;-76
2023/09/07 03:29:25;;;;;;;7.43;5.10;;;20.70;99.90;;;;;;4997701;28;20073;-76
2023/09/07 03:31:51;;;;;;;5.70;4.85;;;20.60;99.90;;;;;;4997365;28;20100;-76
2023/09/07 03:34:17;;;;;;;6.72;5.80;;;20.60;99.90;;;;;;4981011;28;20038;-76
2023/09/07 03:36:42;;;;;;;8.00;5.13;;;20.70;99.90;;;;;;4997116;28;20417;-76
2023/09/07 03:39:08;;;;;;;7.38;4.93;;;20.30;99.90;;;;;;4997172;28;20125;-76
2023/09/07 03:41:34;;;;;;;6.53;5.32;;;20.60;99.90;;;;;;4981195;28;20497;-76
2023/09/07 03:44:00;;;;;;;6.80;4.75;;;20.50;99.90;;;;;;4980812;28;20042;-76
2023/09/07 03:46:26;;;;;;;7.50;5.28;;;20.30;99.90;;;;;;4996659;28;20069;-76
2023/09/07 03:48:52;;;;;;;8.95;5.47;;;20.40;99.90;;;;;;4997318;28;20165;-76
2023/09/07 03:51:18;;;;;;;6.68;5.28;;;20.60;99.90;;;;;;4980644;28;20513;-76
2023/09/07 03:53:43;;;;;;;8.00;5.28;;;21.00;99.90;;;;;;4996962;28;20037;-76
2023/09/07 03:56:09;;;;;;;6.60;5.57;;;20.40;99.90;;;;;;4996599;28;20042;-76
2023/09/07 03:58:35;;;;;;;6.80;5.45;;;20.30;99.90;;;;;;4997126;28;20040;-76
2023/09/07 04:01:00;;;;;;;9.15;5.65;;;21.10;99.90;;;;;;4996431;28;20069;-76
2023/09/07 04:03:26;;;;;;;7.43;5.03;;;20.50;99.90;;;;;;4997014;28;20500;-76
2023/09/07 04:05:52;;;;;;;6.03;5.43;;;20.60;99.90;;;;;;4980287;28;20120;-76
2023/09/07 04:08:18;;;;;;;5.68;4.78;;;20.20;99.90;;;;;;4980529;28;20038;-76
2023/09/07 04:10:44;;;;;;;10.57;5.82;;;21.10;99.90;;;;;;4996522;28;20042;-76
2023/09/07 04:13:09;;;;;;;6.55;5.07;;;20.20;99.90;;;;;;4980678;28;20081;-76
2023/09/07 04:15:42;;;;;;;9.57;5.50;;;20.10;99.90;;;;;;4996461;28;20497;-76
2023/09/07 04:18:08;;;;;;;;;;;20.20;99.90;;;;;;4980446;28;20041;-76
2023/09/07 04:20:34;;;;;;;7.07;5.43;;;20.20;99.90;;;;;;4996440;28;19917;-76
2023/09/07 04:22:59;;;;;;;6.78;5.78;;;20.10;99.90;;;;;;4996379;28;20095;-76
2023/09/07 04:25:25;;;;;;;8.15;6.07;;;20.70;99.90;;;;;;4996395;28;20038;-76
2023/09/07 04:27:51;;;;;;;21.17;7.82;;;20.80;99.90;;;;;;4995848;28;20037;-76
2023/09/07 04:30:17;;;;;;;8.20;5.53;;;20.30;99.90;;;;;;4996407;28;20041;-76
2023/09/07 04:32:43;;;;;;;9.63;5.35;;;20.30;99.90;;;;;;4996266;28;20045;-76
2023/09/07 04:35:08;;;;;;;6.90;5.72;;;20.10;99.90;;;;;;4996268;28;20045;-76
2023/09/07 04:37:34;;;;;;;6.22;5.07;;;20.00;99.90;;;;;;4995724;28;20151;-76
2023/09/07 04:40:00;;;;;;;10.35;5.85;;;20.10;99.90;;;;;;4996371;28;20041;-76
2023/09/07 04:42:25;;;;;;;7.03;6.25;;;19.90;99.90;;;;;;4995962;28;20070;-76
2023/09/07 04:44:51;;;;;;;9.73;6.65;;;20.00;99.90;;;;;;4980031;28;20124;-76
2023/09/07 04:47:17;;;;;;;9.00;5.47;;;20.10;99.90;;;;;;4995375;28;20492;-76
2023/09/07 04:49:48;;;;;;;7.13;5.85;;;20.00;99.90;;;;;;4995897;28;20037;-76
2023/09/07 04:52:13;;;;;;;8.98;5.80;;;19.90;99.90;;;;;;4996032;28;20092;-76
2023/09/07 04:54:39;;;;;;;10.32;6.13;;;20.20;99.90;;;;;;4995735;28;20497;-76
2023/09/07 04:57:05;;;;;;;10.07;6.30;;;19.90;99.90;;;;;;4994883;28;20061;-76
2023/09/07 04:59:30;;;;;;;6.53;5.88;;;19.80;99.90;;;;;;4979591;28;20488;-76
2023/09/07 05:02:00;;;;;;;6.43;5.20;;;20.50;99.90;;;;;;4995763;28;20030;-76
2023/09/07 05:04:26;;;;;;;8.70;6.47;;;19.90;99.90;;;;;;4979381;28;20042;-76
2023/09/07 05:06:51;;;;;;;9.90;6.05;;;19.80;99.90;;;;;;4995349;28;20389;-76
2023/09/07 05:09:17;;;;;;;9.63;6.28;;;19.80;99.90;;;;;;4995800;28;20045;-76
2023/09/07 05:11:42;;;;;;;7.75;6.03;;;20.60;99.90;;;;;;4995862;28;20564;-77
2023/09/07 05:14:08;;;;;;;8.93;7.00;;;19.60;99.90;;;;;;4979218;28;20041;-76
2023/09/07 05:16:33;;;;;;;6.20;5.60;;;20.30;99.90;;;;;;4978922;28;20049;-76
2023/09/07 05:18:59;;;;;;;6.30;5.65;;;19.90;99.90;;;;;;4995646;28;20073;-77
2023/09/07 05:21:25;;;;;;;9.98;6.45;;;19.60;99.90;;;;;;4995165;28;20048;-76
2023/09/07 05:23:50;;;;;;;9.27;6.63;;;19.70;99.90;;;;;;4995478;28;20056;-76
2023/09/07 05:26:24;;;;;;;9.05;6.07;;;19.80;99.90;;;;;;4994897;28;20041;-77
2023/09/07 05:28:50;;;;;;;6.82;5.82;;;20.40;99.90;;;;;;4994986;28;20056;-76
2023/09/07 05:31:15;;;;;;;7.85;6.05;;;20.10;99.90;;;;;;4995020;28;20041;-76
2023/09/07 05:33:41;;;;;;;8.40;6.22;;;20.50;99.90;;;;;;4995318;28;20042;-76
2023/09/07 05:36:07;;;;;;;10.32;6.65;;;19.90;99.90;;;;;;4994293;28;20129;-76
2023/09/07 05:38:32;;;;;;;9.70;6.20;;;19.80;99.90;;;;;;4994844;28;20070;-76
2023/09/07 05:40:58;;;;;;;7.50;6.07;;;19.70;99.90;;;;;;4994367;28;20034;-76
2023/09/07 05:43:24;;;;;;;11.20;6.18;;;20.00;99.90;;;;;;4984782;28;20038;-76
2023/09/07 05:45:49;;;;;;;11.65;6.40;;;19.90;99.90;;;;;;4975410;28;20045;-76
2023/09/07 05:48:18;;;;;;;10.55;6.82;;;20.00;99.90;;;;;;4975119;28;20121;-76
2023/09/07 05:50:44;;;;;;;8.40;6.28;;;20.00;99.90;;;;;;4975427;28;20038;-76
2023/09/07 05:53:09;;;;;;;8.98;6.05;;;20.50;99.90;;;;;;4975048;28;20089;-76
2023/09/07 05:55:35;;;;;;;7.78;5.53;;;20.00;99.90;;;;;;4959051;28;20456;-76
2023/09/07 05:58:05;;;;;;;11.35;6.07;;;20.10;99.90;;;;;;4974381;28;20129;-76
2023/09/07 06:00:31;;;;;;;10.20;6.63;;;20.10;99.90;;;;;;4974662;28;20509;-76
2023/09/07 06:02:57;;;;;;;7.82;5.85;;;20.20;99.90;;;;;;4959248;28;20089;-77
2023/09/07 06:05:23;;;;;;;9.82;6.03;;;20.30;99.90;;;;;;4971607;28;20039;-76
2023/09/07 06:07:48;;;;;;;10.10;6.03;;;20.30;99.90;;;;;;4979271;28;20398;-76
2023/09/07 06:10:14;;;;;;;9.00;5.75;;;20.30;99.90;;;;;;4978613;28;20042;-77
2023/09/07 06:12:41;;;;;;;9.63;6.22;;;20.10;99.90;;;;;;4981839;28;20042;-76
2023/09/07 06:15:07;;;;;;;10.52;7.03;;;20.30;99.90;;;;;;4977902;28;20138;-78
2023/09/07 06:17:33;;;;;;;9.60;6.25;;;20.60;99.90;;;;;;4975759;28;20044;-77
2023/09/07 06:19:59;;;;;;;7.70;5.28;;;20.70;99.90;;;;;;4968422;28;20118;-76
2023/09/07 06:22:24;;;;;;;7.88;5.60;;;20.60;99.90;;;;;;4963956;28;20497;-76
2023/09/07 06:24:50;;;;;;;8.93;5.75;;;20.60;99.90;;;;;;4983704;28;20038;-76
2023/09/07 06:27:16;;;;;;;7.45;5.72;;;20.80;99.90;;;;;;4957985;28;20034;-76
2023/09/07 06:29:41;;;;;;;11.90;6.40;;;20.70;99.90;;;;;;4986910;28;20038;-76
2023/09/07 06:32:07;;;;;;;6.18;5.57;;;20.80;99.90;;;;;;4981920;28;20508;-76
2023/09/07 06:34:33;;;;;;;19.45;6.82;;;20.90;99.90;;;;;;4983633;28;20045;-80
2023/09/07 06:36:58;;;;;;;9.65;6.03;;;21.10;99.90;;;;;;4987566;28;20030;-78
2023/09/07 06:39:24;;;;;;;7.50;5.85;;;21.10;99.90;;;;;;4988598;28;20065;-79
2023/09/07 06:41:49;;;;;;;6.90;5.32;;;20.90;99.90;;;;;;4970981;28;20034;-78
2023/09/07 06:44:15;;;;;;;9.30;5.22;;;21.50;99.90;;;;;;4984567;28;20039;-78
2023/09/07 06:46:41;;;;;;;9.00;6.38;;;21.70;99.90;;;;;;4967560;28;20105;-77
2023/09/07 06:49:07;;;;;;;9.43;4.97;;;21.30;99.90;;;;;;4985192;28;20169;-78
2023/09/07 06:51:33;;;;;;;9.43;5.75;;;21.30;99.90;;;;;;4980996;28;20047;-78
2023/09/07 06:53:59;;;;;;;10.52;5.60;;;21.50;99.90;;;;;;4970451;28;20086;-78
2023/09/07 06:56:26;;;;;;;8.13;5.95;;;21.60;99.90;;;;;;4954591;28;20127;-78
2023/09/07 06:58:52;;;;;;;8.75;5.63;;;21.90;99.90;;;;;;4969448;28;20069;-79
2023/09/07 07:01:18;;;;;;;7.63;5.43;;;21.70;99.90;;;;;;4995104;28;20080;-77
2023/09/07 07:03:43;;;;;;;10.02;5.40;;;21.80;99.90;;;;;;4976111;28;20041;-77
2023/09/07 07:06:09;;;;;;;7.18;5.07;;;21.80;99.90;;;;;;4978126;28;20046;-78
2023/09/07 07:08:35;;;;;;;8.13;5.82;;;21.90;99.90;;;;;;4977458;28;20043;-78
2023/09/07 07:11:00;;;;;;;12.05;5.47;;;22.40;99.90;;;;;;4977569;28;20092;-78
2023/09/07 07:13:26;;;;;;;7.13;5.28;;;22.10;99.90;;;;;;4995394;28;20041;-77
2023/09/07 07:15:51;;;;;;;10.05;5.97;;;22.70;99.90;;;;;;4962025;28;20042;-77
2023/09/07 07:18:17;;;;;;;11.82;5.97;;;22.10;99.90;;;;;;4978447;28;20049;-78
2023/09/07 07:20:44;;;;;;;9.82;5.85;;;22.40;99.90;;;;;;4979587;28;20042;-77
2023/09/07 07:23:10;;;;;;;7.82;5.45;;;22.40;99.90;;;;;;4982327;28;20053;-77
2023/09/07 07:25:37;;;;;;;12.27;6.07;;;22.50;99.90;;;;;;4965799;28;20035;-77
2023/09/07 07:28:06;;;;;;;9.18;5.05;;;22.60;99.90;;;;;;4965517;28;20042;-77
2023/09/07 07:30:37;;;;;;;8.25;5.10;;;22.70;99.90;;;;;;4962601;28;20104;-77
2023/09/07 07:33:03;;;;;;;10.73;5.15;;;22.80;99.90;;;;;;4963262;28;20045;-78
2023/09/07 07:35:34;;;;;;;9.55;5.78;;;22.90;99.90;;;;;;4959152;28;20042;-75
2023/09/07 07:38:00;;;;;;;9.05;5.25;;;22.90;99.90;;;;;;4942259;28;20047;-75
2023/09/07 07:40:26;;;;;;;7.13;5.18;;;23.00;99.90;;;;;;4958403;28;20053;-75
2023/09/07 07:42:53;;;;;;;7.00;5.00;;;23.10;99.90;;;;;;4942644;28;20061;-75
2023/09/07 07:45:21;;;;;;;7.03;4.30;;;23.40;99.90;;;;;;4958257;28;20042;-75
2023/09/07 07:47:51;;;;;;;10.02;5.95;;;23.30;99.90;;;;;;4957981;28;20124;-76
2023/09/07 07:50:17;;;;;;;9.68;5.22;;;23.30;99.90;;;;;;4958200;28;20486;-76
2023/09/07 07:52:42;;;;;;;4.93;4.38;;;23.40;99.90;;;;;;4958269;28;20053;-75
2023/09/07 07:55:12;;;;;;;8.05;4.55;;;;;;;;;;4942412;28;20047;-75
2023/09/07 07:57:38;;;;;;;7.70;4.30;;;;;;;;;;4957884;28;20050;-75
2023/09/07 08:00:04;;;;;;;7.63;5.00;;;;;;;;;;4957805;28;20039;-75
2023/09/07 08:02:31;;;;;;;5.40;4.43;;;;;;;;;;4942148;28;20126;-75
2023/09/07 08:04:57;;;;;;;6.95;4.55;;;;;;;;;;4957941;28;20038;-75
2023/09/07 08:07:23;;;;;;;5.50;4.40;;;;;;;;;;4957661;28;20045;-75
2023/09/07 08:09:50;;;;;;;6.47;4.78;;;;;;;;;;4957929;28;20042;-75
2023/09/07 08:12:17;;;;;;;5.18;4.47;;;;;;;;;;4941774;28;20054;-76
2023/09/07 08:14:43;;;;;;;7.78;4.72;;;;;;;;;;4957780;28;20078;-75
2023/09/07 08:17:09;;;;;;;7.90;4.32;;;;;;;;;;4957513;28;20133;-76
2023/09/07 08:19:35;;;;;;;6.93;4.68;;;;;;;;;;4941904;28;20134;-75
2023/09/07 08:22:03;;;;;;;7.18;4.30;;;;;;;;;;4941595;28;20502;-75
2023/09/07 08:24:29;;;;;;;4.90;4.20;;;;;;;;;;4957893;28;20062;-76
2023/09/07 08:26:57;;;;;;;5.63;3.90;;;;;;;;;;4957178;28;20046;-76
2023/09/07 08:29:26;;;;;;;8.40;3.80;;;;;;;;;;4941499;28;20490;-75
2023/09/07 08:31:52;;;;;;;5.68;4.30;;;;;;;;;;4956723;28;20047;-76
2023/09/07 08:34:20;;;;;;;6.75;4.18;;;;;;;;;;4957620;28;20188;-75
2023/09/07 08:36:47;;;;;;;6.65;3.85;;;;;;;;;;4957135;28;20173;-76
2023/09/07 08:39:13;;;;;;;4.90;3.80;;;;;;;;;;4957011;28;20046;-76
2023/09/07 08:41:43;;;;;;;8.80;4.53;;;;;;;;;;4957265;28;20043;-76
2023/09/07 08:44:10;;;;;;;6.38;3.88;;;;;;;;;;4957300;28;20051;-76
2023/09/07 08:46:37;;;;;;;4.65;3.88;;;;;;;;;;4941141;28;20494;-76
2023/09/07 08:49:03;;;;;;;6.20;4.18;;;;;;;;;;4941188;28;20047;-76
2023/09/07 08:51:31;;;;;;;7.10;3.90;;;;;;;;;;4957034;28;20053;-76
2023/09/07 08:53:57;;;;;;;6.70;3.58;;;;;;;;;;4957370;28;20138;-76
2023/09/07 08:56:23;;;;;;;8.60;4.28;;;;;;;;;;4956852;28;20418;-76
2023/09/07 08:58:49;;;;;;;6.47;3.70;;;;;;;;;;4957274;28;20097;-76
2023/09/07 09:01:15;;;;;;;6.20;3.67;;;;;;;;;;4940800;28;20407;-76
2023/09/07 09:03:45;;;;;;;5.28;3.63;;;;;;;;;;4957063;28;20398;-76
2023/09/07 09:06:12;;;;;;;8.75;4.05;;;;;;;;;;4940496;28;20043;-76
2023/09/07 09:08:52;;;;;;;8.63;4.03;;;;;;;;;;4940838;28;20042;-75
2023/09/07 09:11:18;;;;;;;7.93;4.43;;;;;;;;;;4956726;28;20121;-75
2023/09/07 09:13:45;;;;;;;5.60;3.60;;;;;;;;;;4956879;28;20402;-76
2023/09/07 09:16:12;;;;;;;7.97;4.22;;;;;;;;;;4956299;28;20042;-76
2023/09/07 09:18:39;;;;;;;4.75;4.03;;;;;;;;;;4940918;28;20132;-76
2023/09/07 09:21:05;;;;;;;5.25;3.97;;;;;;;;;;4940535;28;20054;-76
2023/09/07 09:23:36;;;;;;;5.07;3.90;;;;;;;;;;4956487;28;20050;-76
2023/09/07 09:26:03;;;;;;;4.25;3.45;;;;;;;;;;4956240;28;20074;-76
2023/09/07 09:28:31;;;;;;;5.00;4.50;;;;;;;;;;4956369;28;20050;-76
2023/09/07 09:30:58;;;;;;;5.63;3.90;;;;;;;;;;4956591;28;20050;-76
2023/09/07 09:33:25;;;;;;;7.25;3.80;;;;;;;;;;4956467;28;20046;-76
2023/09/07 09:35:52;;;;;;;4.40;4.00;;;;;;;;;;4940234;28;20387;-76
2023/09/07 09:38:18;;;;;;;6.40;3.50;;;;;;;;;;4956175;28;20105;-76
2023/09/07 09:40:44;;;;;;;8.32;3.92;;;;;;;;;;4956017;28;20043;-76
2023/09/07 09:43:10;;;;;;;5.68;3.47;;;;;;;;;;4940139;28;20039;-76
2023/09/07 09:45:36;;;;;;;4.78;3.25;;;;;;;;;;4956359;28;20522;-76
2023/09/07 09:48:03;;;;;;;5.05;3.65;;;;;;;;;;4955693;28;20506;-76
2023/09/07 09:50:29;;;;;;;5.25;3.40;;;;;;;;;;4939972;28;20047;-76
2023/09/07 09:52:55;;;;;;;5.45;3.33;;;;;;;;;;4955960;28;20043;-76
2023/09/07 09:55:22;;;;;;;5.20;3.90;;;;;;;;;;4939997;28;20101;-76
2023/09/07 09:57:49;;;;;;;6.57;3.50;;;;;;;;;;4955480;28;20046;-76
2023/09/07 10:03:05;;;;;;;6.88;3.55;;;;;;;;;;4955721;28;20517;-76
2023/09/07 10:05:33;;;;;;;7.03;3.60;;;;;;;;;;4939753;28;20042;-76
2023/09/07 10:08:05;;;;;;;4.63;3.90;;;;;;;;;;4955361;28;20043;-76
2023/09/07 10:10:39;;;;;;;6.18;3.30;;;;;;;;;;4940060;28;20194;-76
2023/09/07 10:13:08;;;;;;;3.45;3.08;;;;;;;;;;4939890;28;20047;-76
2023/09/07 10:15:38;;;;;;;6.72;3.40;;;;;;;;;;4939877;28;20525;-75
2023/09/07 10:18:18;;;;;;;4.18;3.78;;;;;;;;;;4939357;28;20074;-75
2023/09/07 10:20:55;;;;;;;5.30;2.63;;;;;;;;;;4973512;28;20046;-76
2023/09/07 10:23:23;;;;;;;4.88;3.42;;;;;;;;;;4973169;28;20042;-75
2023/09/07 10:25:50;;;;;;;7.07;3.17;;;;;;;;;;4972725;28;20502;-76
2023/09/07 10:28:26;;;;;;;4.95;3.35;;;;;;;;;;4955642;28;20051;-76
2023/09/07 10:31:08;;;;;;;5.07;3.03;;;;;;;;;;4972688;28;20079;-76
2023/09/07 10:33:35;;;;;;;5.38;3.20;;;;;;;;;;4955516;28;20049;-76
2023/09/07 10:36:03;;;;;;;9.32;3.97;;;;;;;;;;4939329;28;20050;-76
2023/09/07 10:38:29;;;;;;;6.78;3.67;;;;;;;;;;4955535;28;20070;-76
2023/09/07 10:40:57;;;;;;;4.15;3.20;;;28.40;99.90;;;;;;4939336;28;20035;-76
2023/09/07 10:43:27;;;;;;;5.88;3.80;;;;;;;;;;4941953;28;20141;-76
2023/09/07 10:45:54;;;;;;;8.63;3.17;;;;;;;;;;4938300;28;20043;-75
2023/09/07 10:48:21;;;;;;;7.30;3.75;;;;;;;;;;4986962;28;20112;-74
2023/09/07 10:50:47;;;;;;;4.20;3.00;;;28.70;99.90;;;;;;4979144;28;20046;-74
2023/09/07 10:53:14;;;;;;;6.72;4.30;;;28.80;99.90;;;;;;4964166;28;20432;-74
2023/09/07 10:55:42;;;;;;;4.57;3.08;;;28.70;99.90;;;;;;4965188;28;20042;-74
2023/09/07 10:58:10;;;;;;;5.22;3.63;;;28.80;99.90;;;;;;4982207;28;20457;-74
2023/09/07 11:00:35;;;;;;;4.35;3.38;;;28.80;99.90;;;;;;4962167;28;20390;-74
2023/09/07 11:03:08;;;;;;;5.30;3.63;;;28.70;99.90;;;;;;4966567;28;20051;-77
2023/09/07 11:05:36;;;;;;;6.30;3.45;;;28.80;99.90;;;;;;4972368;28;20038;-76
2023/09/07 11:08:06;;;;;;;5.30;4.00;;;29.10;99.90;;;;;;4976323;28;20516;-76
2023/09/07 11:10:33;;;;;;;5.22;3.40;;;29.20;99.90;;;;;;4976743;28;20102;-76
2023/09/07 11:13:03;;;;;;;6.50;3.22;;;29.10;99.90;;;;;;4986114;28;20105;-76
2023/09/07 11:15:30;;;;;;;5.40;4.07;;;29.20;99.90;;;;;;4985108;28;20144;-77
2023/09/07 11:17:56;;;;;;;6.05;3.70;;;29.30;99.90;;;;;;4969373;28;20049;-76
2023/09/07 11:20:23;;;;;;;9.45;4.00;;;29.40;99.90;;;;;;4970468;28;20498;-76
2023/09/07 11:22:49;;;;;;;6.60;3.58;;;29.40;99.90;;;;;;4983091;28;20046;-78
2023/09/07 11:25:15;;;;;;;14.93;4.78;;;29.50;99.90;;;;;;4970626;28;20030;-76
2023/09/07 11:27:41;;;;;;;6.68;3.65;;;29.40;99.90;;;;;;4985644;28;20432;-77
2023/09/07 11:30:08;;;;;;;8.10;3.60;;;29.50;99.90;;;;;;4986444;28;20042;-77
2023/09/07 11:32:38;;;;;;;6.30;3.85;;;29.70;99.90;;;;;;4982490;28;20065;-78
2023/09/07 11:35:07;;;;;;;8.43;3.38;;;29.80;99.90;;;;;;4985673;28;20046;-79
2023/09/07 11:37:36;;;;;;;6.97;3.88;;;;;;;;;;4972942;28;20038;-76
2023/09/07 11:40:04;;;;;;;5.97;3.03;;;;;;;;;;4953514;28;20070;-77
2023/09/07 11:42:30;;;;;;;9.38;4.00;;;;;;;;;;4955904;28;20043;-75
2023/09/07 11:44:56;;;;;;;5.53;3.55;;;;;;;;;;4996784;28;20125;-75
2023/09/07 11:47:22;;;;;;;5.22;3.30;;;;;;;;;;4980515;28;20038;-76
2023/09/07 11:49:52;;;;;;;6.32;3.42;;;;;;;;;;4997124;28;20128;-75
2023/09/07 11:52:19;;;;;;;5.05;3.40;;;;;;;;;;4997026;28;20105;-76
2023/09/07 11:54:45;;;;;;;4.75;3.13;;;30.10;99.90;;;;;;4981871;28;20046;-75
2023/09/07 11:57:11;;;;;;;4.70;4.13;;;30.00;99.90;;;;;;4976473;28;20037;-75
2023/09/07 11:59:36;;;;;;;4.82;3.35;;;30.10;99.90;;;;;;4979843;28;20055;-76
2023/09/07 12:02:02;;;;;;;9.60;3.60;;;30.10;99.90;;;;;;4994640;28;20037;-75
2023/09/07 12:04:27;;;;;;;7.10;3.38;;;30.10;99.90;;;;;;4996492;28;20034;-75
2023/09/07 12:06:53;;;;;;;11.15;3.63;;;30.10;99.90;;;;;;4995163;28;20071;-75
2023/09/07 12:09:21;;;;;;;6.07;3.38;;;30.30;99.90;;;;;;4996563;28;20044;-75
2023/09/07 12:11:48;;;;;;;8.38;3.50;;;;;;;;;;4996324;28;20535;-75
2023/09/07 12:14:14;;;;;;;4.55;3.28;;;;;;;;;;4961426;28;20505;-76
2023/09/07 12:16:40;;;;;;;7.07;3.92;;;30.30;99.90;;;;;;4960833;28;20042;-75
2023/09/07 12:19:05;;;;;;;5.93;3.50;;;30.50;99.90;;;;;;4977067;28;20051;-76
2023/09/07 12:21:32;;;;;;;9.98;3.45;;;;;;;;;;4977334;28;20077;-75
2023/09/07 12:24:00;;;;;;;7.82;3.80;;;;;;;;;;4977211;28;20406;-75
2023/09/07 12:26:26;;;;;;;5.93;3.45;;;30.30;99.90;;;;;;4960719;28;20066;-75
2023/09/07 12:28:53;;;;;;;5.07;3.33;;;;;;;;;;5010289;28;20176;-75
2023/09/07 12:31:22;;;;;;;5.38;3.13;;;;;;;;;;4996275;28;20089;-75
2023/09/07 12:33:51;;;;;;;5.65;3.40;;;;;;;;;;4979458;28;20165;-75
2023/09/07 12:36:17;;;;;;;5.68;3.67;;;30.80;99.90;;;;;;4995952;28;20053;-75
2023/09/07 12:38:43;;;;;;;4.25;3.25;;;30.90;99.90;;;;;;4996388;28;20104;-75
2023/09/07 12:41:08;;;;;;;7.05;3.63;;;30.70;99.90;;;;;;4996001;28;20034;-75
2023/09/07 12:43:36;;;;;;;5.30;3.20;;;30.60;99.90;;;;;;4979826;28;20045;-75
2023/09/07 12:46:01;;;;;;;5.50;3.95;;;30.70;99.90;;;;;;4995483;28;20038;-75
2023/09/07 12:48:27;;;;;;;7.43;3.40;;;30.70;99.90;;;;;;4994557;28;20060;-75
2023/09/07 12:50:54;;;;;;;5.10;3.40;;;30.80;99.90;;;;;;4976693;28;20070;-75
2023/09/07 12:53:19;;;;;;;5.68;3.20;;;30.70;99.90;;;;;;4960463;28;20039;-76
2023/09/07 12:55:45;;;;;;;6.30;3.60;;;30.60;99.90;;;;;;4976390;28;20186;-75
2023/09/07 12:58:10;;;;;;;4.85;3.45;;;30.70;99.90;;;;;;4976349;28;20050;-75
2023/09/07 13:00:36;;;;;;;5.68;3.97;;;30.80;99.90;;;;;;4977119;28;20137;-75
2023/09/07 13:03:02;;;;;;;6.07;3.60;;;30.90;99.90;;;;;;4976488;28;20512;-75
2023/09/07 13:05:28;;;;;;;4.90;3.30;;;30.90;99.90;;;;;;4976920;28;20078;-75
2023/09/07 13:07:54;;;;;;;6.88;3.47;;;30.90;99.90;;;;;;4990340;28;20528;-75
2023/09/07 13:10:20;;;;;;;5.60;3.45;;;31.00;99.90;;;;;;4995659;28;20050;-76
2023/09/07 13:12:45;;;;;;;7.75;4.03;;;31.00;99.90;;;;;;4995270;28;20051;-77